To NAV CANADA Home Page Login to a new session Search on AWWS site Feedback and Comments Disclaimer Vers la page française équivalente Tips FAQ What's new on the site To the Forecasts and Observations / NOTAM section To "File a Flight Plan" website Publications and other links Update of the User's profile FIC Telephone Numbers My Weather Data Folder Route Weather Data Regional Weather Data Local Weather Data To the Forecasts and Observations / NOTAM section
Request Generated 02/23/2017 at 20:47:08 UTC . Weather information available at that time is displayed.

METAR/TAF

SARNIA (CHRIS HADFIELD)/ON    (show WxCam)

METAR CYZR 232000Z AUTO 03014KT 9SM CLR 10/05 A2975 RMK SLP078=
METAR CYZR 231900Z AUTO 01014KT 9SM CLR 13/06 A2973 RMK SLP069
DENSITY ALT 700FT=
METAR CYZR 231800Z AUTO 36011KT 9SM CLR 15/07 A2972 RMK SLP066
DENSITY ALT 900FT=

TAF CYZR 231938Z 2320/2403 03012KT P6SM SKC PROB30 2400/2403 1SM BR
BKN003
RMK FCST BASED ON AUTO OBS. NXT FCST WILL BE ISSUED AT 241245Z=
Your time UTC time
Weather data provided by Environment Canada and NAV CANADA